Time;durP1;ratioP1;P1;durP2;ratioP2;P2;SDS_P1;SDS_P2;PMS_P1;PMS_P2;Temp;Humidity;BMP_temperature;BMP_pressure;BME280_temperature;BME280_humidity;BME280_pressure;Samples;Min_cycle;Max_cycle;Signal;HPM_P1;HPM_P2
2023/06/05 00:00:38;;;;;;;6.57;2.80;;;;;;;;;;5031042;28;20484;-68
2023/06/05 00:03:04;;;;;;;5.03;2.90;;;;;;;;;;4996745;28;20560;-68
2023/06/05 00:05:31;;;;;;;6.10;2.83;;;;;;;;;;4993528;28;20453;-68
2023/06/05 00:08:16;;;;;;;6.17;2.47;;;;;;;;;;5014947;28;20438;-68
2023/06/05 00:10:43;;;;;;;8.10;3.03;;;;;;;;;;5030048;28;20446;-68
2023/06/05 00:13:27;;;;;;;8.63;2.50;;;;;;;;;;5029732;28;20468;-68
2023/06/05 00:15:56;;;;;;;7.60;2.60;;;;;;;;;;5028105;28;20450;-68
2023/06/05 00:18:23;;;;;;;6.83;2.77;;;;;;;;;;5028934;28;20474;-68
2023/06/05 00:20:49;;;;;;;4.77;2.67;;;;;;;;;;5011540;28;20488;-68
2023/06/05 00:23:16;;;;;;;7.90;3.00;;;;;;;;;;5029694;28;20492;-68
2023/06/05 00:25:43;;;;;;;8.97;2.90;;;;;;;;;;5021277;28;20815;-68
2023/06/05 00:28:10;;;;;;;7.47;3.20;;;;;;;;;;5029682;28;20788;-68
2023/06/05 00:30:37;;;;;;;8.70;3.10;;;;;;;;;;5012634;28;20455;-68
2023/06/05 00:33:05;;;;;;;7.47;3.07;;;;;;;;;;5012742;28;20441;-68
2023/06/05 00:35:31;;;;;;;5.00;2.83;;;;;;;;;;5029289;28;20449;-68
2023/06/05 00:37:58;;;;;;;8.23;3.00;;;;;;;;;;4992369;28;20450;-69
2023/06/05 00:40:25;;;;;;;8.93;3.43;;;;;;;;;;5009762;28;20431;-68
2023/06/05 00:42:52;;;;;;;4.57;2.60;;;;;;;;;;4993034;28;20881;-68
2023/06/05 00:45:19;;;;;;;6.07;3.10;;;;;;;;;;4992605;28;20447;-68
2023/06/05 00:47:46;;;;;;;4.93;2.80;;;;;;;;;;5012452;28;20665;-68
2023/06/05 00:50:14;;;;;;;4.90;2.90;;;;;;;;;;5012446;28;20991;-68
2023/06/05 00:52:42;;;;;;;8.13;2.90;;;;;;;;;;5011780;28;20440;-69
2023/06/05 00:55:09;;;;;;;9.97;3.17;;;;;;;;;;5012619;28;20442;-69
2023/06/05 00:57:38;;;;;;;6.67;3.20;;;;;;;;;;4996324;28;20848;-68
2023/06/05 01:00:12;;;;;;;4.97;2.83;;;;;;;;;;5012006;28;20532;-68
2023/06/05 01:02:39;;;;;;;7.23;3.50;;;;;;;;;;5029802;28;20488;-68
2023/06/05 01:05:07;;;;;;;6.67;2.97;;;;;;;;;;5029712;28;20436;-68
2023/06/05 01:07:34;;;;;;;6.23;3.17;;;;;;;;;;5030289;28;20533;-68
2023/06/05 01:10:01;;;;;;;7.50;3.37;;;;;;;;;;5011391;28;20523;-69
2023/06/05 01:12:48;;;;;;;6.73;3.40;;;;;;;;;;5012169;28;20495;-68
2023/06/05 01:15:15;;;;;;;6.17;3.13;;;;;;;;;;5029370;28;20455;-68
2023/06/05 01:17:45;;;;;;;5.97;3.10;;;;;;;;;;4995220;28;20527;-68
2023/06/05 01:20:12;;;;;;;8.10;3.10;;;;;;;;;;5029250;28;20525;-68
2023/06/05 01:22:39;;;;;;;5.13;3.20;;;;;;;;;;5029939;28;20524;-68
2023/06/05 01:25:07;;;;;;;7.93;3.60;;;;;;;;;;4979513;28;21170;-69
2023/06/05 01:27:37;;;;;;;5.50;3.07;;;;;;;;;;5029136;28;20434;-68
2023/06/05 01:30:10;;;;;;;6.13;2.80;;;;;;;;;;5029175;28;20807;-68
2023/06/05 01:32:37;;;;;;;4.93;3.37;;;;;;;;;;5009926;28;20457;-68
2023/06/05 01:35:05;;;;;;;8.03;3.27;;;;;;;;;;5011047;28;20978;-68
2023/06/05 01:37:40;;;;;;;6.13;3.30;;;;;;;;;;5012126;28;20514;-68
2023/06/05 01:40:08;;;;;;;6.23;3.53;;;;;;;;;;4994896;28;20452;-68
2023/06/05 02:18:25;;;;;;;6.30;3.30;;;;;;;;;;5028646;28;21095;-68
2023/06/05 02:20:53;;;;;;;6.87;3.20;;;;;;;;;;5028580;28;20473;-68
2023/06/05 02:23:20;;;;;;;5.17;3.07;;;;;;;;;;5011784;28;20468;-68
2023/06/05 02:25:47;;;;;;;5.80;3.37;;;;;;;;;;5030039;28;20460;-68
2023/06/05 02:28:15;;;;;;;6.07;3.30;;;;;;;;;;5027343;28;20994;-68
2023/06/05 02:30:44;;;;;;;7.40;3.40;;;;;;;;;;5027817;28;20510;-68
2023/06/05 02:33:11;;;;;;;6.40;3.40;;;;;;;;;;5010322;28;20805;-69
2023/06/05 02:35:40;;;;;;;7.17;3.53;;;;;;;;;;4993587;28;20460;-69
2023/06/05 02:38:12;;;;;;;6.23;3.43;;;;;;;;;;5009947;28;20586;-69
2023/06/05 02:40:39;;;;;;;6.73;3.33;;;;;;;;;;4993354;28;20525;-69
2023/06/05 02:43:06;;;;;;;8.37;3.50;;;;;;;;;;5027246;28;21229;-69
2023/06/05 02:45:33;;;;;;;9.77;4.03;;;;;;;;;;5010227;28;20464;-69
2023/06/05 02:48:00;;;;;;;20.03;5.50;;;;;;;;;;5007414;28;20444;-69
2023/06/05 02:50:30;;;;;;;20.33;5.00;;;;;;;;;;4994118;28;20832;-69
2023/06/05 02:53:01;;;;;;;10.80;4.57;;;;;;;;;;5010224;28;20450;-69
2023/06/05 02:55:46;;;;;;;12.87;4.60;;;;;;;;;;5009170;28;20502;-69
2023/06/05 02:58:17;;;;;;;16.00;4.37;;;;;;;;;;5011272;28;20467;-69
2023/06/05 03:01:01;;;;;;;10.07;3.93;;;;;;;;;;4997092;28;20444;-69
2023/06/05 03:03:35;;;;;;;11.50;4.13;;;;;;;;;;4995176;28;21034;-69
2023/06/05 03:06:27;;;;;;;13.80;3.90;;;;;;;;;;4994947;28;20487;-69
2023/06/05 03:08:55;;;;;;;18.50;4.47;;;;;;;;;;4998993;28;20453;-69
2023/06/05 03:11:24;;;;;;;8.30;3.87;;;;;;;;;;5014513;28;20916;-69
2023/06/05 03:13:51;;;;;;;12.00;4.03;;;;;;;;;;5032016;28;20767;-69
2023/06/05 03:16:18;;;;;;;12.93;4.47;;;;;;;;;;5014502;28;20442;-69
2023/06/05 03:19:03;;;;;;;11.47;4.23;;;;;;;;;;5014352;28;20441;-69
2023/06/05 03:21:30;;;;;;;9.30;4.27;;;;;;;;;;5014221;28;20438;-69
2023/06/05 03:24:15;;;;;;;7.80;3.97;;;;;;;;;;5014195;28;20479;-69
2023/06/05 03:26:47;;;;;;;6.03;3.80;;;;;;;;;;4998246;28;20453;-69
2023/06/05 03:29:14;;;;;;;11.43;3.93;;;;;;;;;;5014424;28;20849;-69
2023/06/05 03:31:42;;;;;;;10.37;3.70;;;;;;;;;;5013724;28;20876;-69
2023/06/05 03:34:10;;;;;;;12.17;4.17;;;;;;;;;;5014204;28;20855;-69
2023/06/05 03:36:58;;;;;;;12.00;4.57;;;;;;;;;;5000315;28;20434;-69
2023/06/05 03:39:27;;;;;;;14.80;4.87;;;;;;;;;;5014177;28;20207;-69
2023/06/05 03:42:11;;;;;;;16.30;5.33;;;;;;;;;;5013523;28;20418;-69
2023/06/05 03:44:38;;;;;;;24.73;5.70;;;;;;;;;;4997933;28;20199;-69
2023/06/05 03:47:05;;;;;;;24.87;5.00;;;;;;;;;;4998135;28;20551;-69
2023/06/05 03:49:33;;;;;;;39.30;6.43;;;;;;;;;;5014157;28;20226;-69
2023/06/05 03:52:03;;;;;;;33.07;6.53;;;;;;;;;;4997558;28;20288;-69
2023/06/05 03:54:33;;;;;;;32.67;7.37;;;;;;;;;;5031538;28;20263;-68
2023/06/05 03:57:00;;;;;;;42.43;7.70;;;;;;;;;;5013533;28;20199;-69
2023/06/05 03:59:28;;;;;;;14.13;4.50;;;;;;;;;;5013865;28;20200;-69
2023/06/05 04:02:12;;;;;;;20.53;5.10;;;;;;;;;;5000196;28;20179;-69
2023/06/05 04:04:39;;;;;;;12.53;4.30;;;;;;;;;;4997340;28;20275;-69
2023/06/05 04:07:06;;;;;;;16.33;4.67;;;;;;;;;;5031711;28;20192;-70
2023/06/05 04:09:34;;;;;;;11.60;4.07;;;;;;;;;;5023502;28;20279;-69
2023/06/05 04:12:01;;;;;;;13.53;3.40;;;;;;;;;;5003818;28;20310;-67
2023/06/05 04:14:30;;;;;;;11.63;4.10;;;;;;;;;;5010576;28;20214;-67
2023/06/05 04:16:57;;;;;;;9.40;4.07;;;;;;;;;;5013814;28;20309;-67
2023/06/05 04:19:25;;;;;;;10.30;3.50;;;;;;;;;;5025938;28;20219;-67
2023/06/05 04:22:09;;;;;;;10.03;4.17;;;;;;;;;;5030699;28;20179;-67
2023/06/05 04:24:38;;;;;;;12.30;4.03;;;;;;;;;;5011418;28;20720;-69
2023/06/05 04:27:28;;;;;;;9.97;3.93;;;;;;;;;;5011598;28;20172;-66
2023/06/05 04:29:56;;;;;;;9.03;3.87;;;;;;;;;;5011385;28;20199;-67
2023/06/05 04:32:23;;;;;;;11.50;4.20;;;;;;;;;;5035206;28;20901;-67
2023/06/05 04:34:52;;;;;;;11.13;3.87;;;;;;;;;;5017747;28;20430;-67
2023/06/05 04:37:19;;;;;;;11.57;4.57;;;;;;;;;;5013171;28;20282;-68
2023/06/05 04:39:46;;;;;;;11.90;3.87;;;;;;;;;;5012949;28;20196;-67
2023/06/05 04:42:14;;;;;;;9.77;4.47;;;;;;;;;;5013407;28;20265;-67
2023/06/05 04:44:47;;;;;;;10.60;3.93;;;;;;;;;;5012167;28;20728;-68
2023/06/05 04:47:15;;;;;;;10.33;4.23;;;;;;;;;;5028155;28;20204;-67
2023/06/05 04:49:43;;;;;;;9.77;4.00;;;;;;;;;;5031321;28;20199;-67
2023/06/05 04:52:11;;;;;;;13.27;4.83;;;;;;;;;;5015881;28;20187;-67
2023/06/05 04:54:39;;;;;;;10.87;4.43;;;;;;;;;;5032441;28;20613;-66
2023/06/05 04:57:08;;;;;;;11.30;4.37;;;;;;;;;;5016132;28;21057;-66
2023/06/05 04:59:35;;;;;;;15.03;4.67;;;;;;;;;;5020902;28;20615;-67
2023/06/05 05:02:03;;;;;;;11.17;4.30;;;;;;;;;;5014730;28;20567;-69
2023/06/05 05:04:32;;;;;;;11.37;4.30;;;;;;;;;;5016927;28;20245;-66
2023/06/05 05:07:01;;;;;;;13.67;4.50;;;;;;;;;;5048931;28;20190;-67
2023/06/05 05:09:45;;;;;;;9.67;4.03;;;;;;;;;;5009973;28;20781;-67
2023/06/05 05:12:13;;;;;;;10.63;4.47;;;;;;;;;;5014180;28;20290;-67
2023/06/05 05:14:40;;;;;;;9.50;3.67;;;;;;;;;;5014716;28;20264;-67
2023/06/05 05:17:06;;;;;;;10.10;4.10;;;;;;;;;;5010300;28;20231;-68
2023/06/05 05:19:35;;;;;;;12.20;3.50;;;;;;;;;;5008016;28;20203;-67
2023/06/05 05:22:19;;;;;;;10.33;3.00;;;;;;;;;;5008197;28;20187;-68
2023/06/05 05:24:46;;;;;;;9.77;3.30;;;;;;;;;;5006317;28;20270;-67
2023/06/05 05:27:13;;;;;;;13.43;3.57;;;;;;;;;;5011734;28;20199;-67
2023/06/05 05:29:41;;;;;;;7.43;3.63;;;;;;;;;;5008383;28;20266;-66
2023/06/05 05:32:08;;;;;;;8.47;3.50;;;;;;;;;;5010827;28;20211;-67
2023/06/05 05:34:35;;;;;;;8.03;3.50;;;;;;;;;;5005659;28;20208;-69
2023/06/05 05:37:03;;;;;;;12.40;3.37;;;;;;;;;;4993596;28;20196;-67
2023/06/05 05:39:30;;;;;;;8.63;3.17;;;;;;;;;;5009351;28;20628;-68
2023/06/05 05:42:01;;;;;;;13.20;3.23;;;;;;;;;;5008999;28;20711;-68
2023/06/05 05:44:29;;;;;;;11.77;2.80;;;;;;;;;;5006927;28;20220;-68
2023/06/05 05:46:56;;;;;;;12.93;3.00;;;;;;;;;;5010603;28;20598;-67
2023/06/05 05:49:22;;;;;;;13.43;3.80;;;;;;;;;;5016647;28;20686;-68
2023/06/05 05:51:50;;;;;;;8.63;2.70;;;;;;;;;;5009878;28;20283;-70
2023/06/05 05:54:16;;;;;;;5.27;1.70;;;;;;;;;;5004682;28;20193;-67
2023/06/05 05:56:43;;;;;;;7.10;2.03;;;;;;;;;;5010167;28;20188;-66
2023/06/05 05:59:10;;;;;;;9.13;2.23;;;;;;;;;;5009816;28;20582;-69
2023/06/05 06:01:37;;;;;;;10.33;1.93;;;;;;;;;;5002784;28;20200;-66
2023/06/05 06:04:04;;;;;;;8.93;2.00;;;;;;;;;;5031016;28;20223;-66
2023/06/05 06:06:33;;;;;;;12.47;2.80;;;;;;;;;;5006443;28;20271;-67
2023/06/05 06:09:02;;;;;;;9.90;2.30;;;;;;;;;;5008928;28;20192;-67
2023/06/05 06:11:28;;;;;;;9.40;2.40;;;;;;;;;;5006908;28;20216;-66
2023/06/05 06:13:55;;;;;;;9.63;2.07;;;;;;;;;;5007309;28;20646;-67
2023/06/05 06:16:22;;;;;;;8.73;2.70;;;;;;;;;;5011651;28;20192;-67
2023/06/05 06:18:49;;;;;;;11.60;1.97;;;;;;;;;;5011219;28;20674;-67
2023/06/05 06:21:16;;;;;;;5.40;1.50;;;;;;;;;;5028992;28;20715;-68
2023/06/05 06:23:44;;;;;;;3.93;1.33;;;;;;;;;;5028875;28;20239;-67
2023/06/05 06:26:14;;;;;;;5.27;1.30;;;;;;;;;;4992125;28;20250;-66
2023/06/05 06:28:41;;;;;;;3.27;1.00;;;;;;;;;;5009273;28;20192;-67
2023/06/05 06:31:25;;;;;;;7.80;1.50;;;;;;;;;;5009286;28;20302;-69
2023/06/05 06:33:52;;;;;;;5.80;1.30;;;;;;;;;;4991152;28;20180;-67
2023/06/05 06:36:40;;;;;;;3.57;1.50;;;;;;;;;;4991398;28;20176;-67
2023/06/05 06:39:10;;;;;;;7.10;1.53;;;;;;;;;;5009123;28;20554;-67
2023/06/05 06:41:36;;;;;;;8.03;1.43;;;;;;;;;;5008943;28;20195;-67
2023/06/05 06:44:03;;;;;;;2.93;1.30;;;;;;;;;;5008748;28;20235;-67
2023/06/05 06:46:31;;;;;;;4.13;1.60;;;;;;;;;;5008905;28;20566;-67
2023/06/05 06:48:57;;;;;;;4.33;1.60;;;;;;;;;;5008815;28;20200;-66
2023/06/05 06:51:24;;;;;;;6.00;1.60;;;;;;;;;;5008821;28;20270;-67
2023/06/05 06:53:51;;;;;;;5.70;1.40;;;;;;;;;;4991325;28;20203;-67
2023/06/05 06:56:36;;;;;;;6.77;1.63;;;;;;;;;;5008913;28;20164;-67
2023/06/05 06:59:10;;;;;;;5.40;1.40;;;;;;;;;;5008809;28;20188;-67
2023/06/05 07:02:13;;;;;;;6.70;1.77;;;;;;;;;;5009453;28;20176;-67
2023/06/05 07:04:41;;;;;;;3.97;1.40;;;;;;;;;;5008668;28;20239;-67
2023/06/05 07:07:25;;;;;;;4.63;1.30;;;;;;;;;;5009036;28;20204;-67
2023/06/05 07:09:52;;;;;;;4.80;1.10;;;;;;;;;;5008767;28;20858;-67
2023/06/05 07:12:37;;;;;;;4.93;1.30;;;;;;;;;;5008830;28;20527;-67
2023/06/05 07:15:03;;;;;;;5.03;1.30;;;;;;;;;;5008551;28;20598;-67
2023/06/05 07:17:35;;;;;;;3.40;1.10;;;;;;;;;;5008419;28;20648;-68
2023/06/05 07:20:02;;;;;;;6.00;1.30;;;;;;;;;;4986675;28;20919;-67
2023/06/05 07:22:30;;;;;;;6.57;1.17;;;;;;;;;;4991480;28;20243;-67
2023/06/05 07:24:57;;;;;;;3.07;1.00;;;;;;;;;;5018674;28;20226;-67
2023/06/05 07:27:23;;;;;;;2.50;0.87;;;;;;;;;;5028052;28;20241;-67
2023/06/05 07:29:53;;;;;;;2.27;0.90;;;;;;;;;;5028090;28;20214;-67
2023/06/05 07:32:36;;;;;;;3.80;1.00;;;;;;;;;;5028215;28;20171;-67
2023/06/05 07:35:03;;;;;;;3.27;1.10;;;;;;;;;;5010110;28;20192;-67
2023/06/05 07:37:30;;;;;;;3.00;1.00;;;;;;;;;;5028184;28;20249;-67
2023/06/05 07:39:57;;;;;;;6.60;1.10;;;;;;;;;;5026726;28;20246;-67
2023/06/05 07:42:24;;;;;;;3.17;1.00;;;;;;;;;;5028475;28;20208;-67
2023/06/05 07:45:08;;;;;;;3.67;1.13;;;;;;;;;;5029130;28;20709;-67
2023/06/05 07:47:35;;;;;;;4.13;0.90;;;;;;;;;;5031785;28;20550;-67
2023/06/05 07:50:19;;;;;;;3.50;1.00;;;;;;;;;;5031781;28;20186;-67
2023/06/05 07:52:46;;;;;;;4.43;1.00;;;;;;;;;;5032296;28;20191;-67
2023/06/05 07:55:30;;;;;;;2.90;0.93;;;;;;;;;;5032035;28;20179;-67
2023/06/05 07:57:57;;;;;;;3.10;1.10;;;;;;;;;;5031885;28;20197;-66
2023/06/05 08:00:25;;;;;;;4.40;0.90;;;;;;;;;;5031347;28;20193;-67
2023/06/05 08:02:53;;;;;;;3.77;1.23;;;;;;;;;;5031985;28;20228;-66
2023/06/05 08:05:20;;;;;;;2.40;0.90;;;;;;;;;;5031074;28;20232;-67
2023/06/05 08:08:04;;;;;;;1.20;0.80;;;;;;;;;;5031365;28;20179;-67
2023/06/05 08:10:31;;;;;;;2.70;1.00;;;;;;;;;;5031445;28;20700;-67
2023/06/05 08:13:16;;;;;;;3.07;0.80;;;;;;;;;;5014112;28;20711;-67
2023/06/05 08:15:43;;;;;;;3.77;0.93;;;;;;;;;;5031120;28;20188;-67
2023/06/05 08:18:27;;;;;;;3.70;0.80;;;;;;;;;;5029129;28;20230;-67
2023/06/05 08:20:54;;;;;;;4.23;0.90;;;;;;;;;;5031028;28;20725;-67
2023/06/05 08:23:21;;;;;;;3.70;0.90;;;;;;;;;;5030705;28;20299;-67
2023/06/05 08:25:48;;;;;;;3.43;0.93;;;;;;;;;;5013495;28;20303;-67
2023/06/05 08:28:15;;;;;;;3.63;0.90;;;;;;;;;;5011256;28;20192;-67
2023/06/05 08:30:42;;;;;;;2.03;1.10;;;;;;;;;;5010956;28;20705;-67
2023/06/05 08:33:09;;;;;;;1.10;0.80;;;;;;;;;;5011081;28;20548;-67
2023/06/05 08:35:35;;;;;;;1.97;1.10;;;;;;;;;;5010792;28;20703;-67
2023/06/05 08:38:19;;;;;;;6.47;1.20;;;;;;;;;;4996204;28;20273;-67
2023/06/05 08:40:50;;;;;;;3.70;1.10;;;;;;;;;;5010651;28;20212;-67
2023/06/05 08:43:17;;;;;;;4.53;1.00;;;;;;;;;;4994614;28;20246;-68
2023/06/05 08:45:44;;;;;;;4.50;0.90;;;;;;;;;;5011199;28;20540;-67
2023/06/05 08:48:14;;;;;;;1.70;1.20;;;;;;;;;;5010937;28;20203;-67
2023/06/05 08:50:40;;;;;;;3.33;1.00;;;;;;;;;;4993007;28;20231;-67
2023/06/05 08:53:07;;;;;;;2.80;0.80;;;;;;;;;;5010624;28;20726;-67
2023/06/05 08:55:34;;;;;;;2.57;1.20;;;;;;;;;;4993794;28;20207;-67
2023/06/05 08:58:18;;;;;;;2.17;1.03;;;;;;;;;;4995624;28;20172;-67
2023/06/05 09:00:48;;;;;;;1.67;0.90;;;;;;;;;;5010896;28;20176;-67
2023/06/05 09:03:33;;;;;;;3.40;1.00;;;;;;;;;;4996724;28;20192;-68
2023/06/05 09:06:02;;;;;;;2.93;1.10;;;;;;;;;;4993297;28;20216;-67
2023/06/05 09:08:46;;;;;;;3.13;1.37;;;;;;;;;;5010547;28;20172;-67
2023/06/05 09:11:26;;;;;;;3.10;1.20;;;;;;;;;;4993259;28;20710;-67
2023/06/05 09:14:12;;;;;;;6.27;1.17;;;;;;;;;;5010161;28;20172;-68
2023/06/05 09:16:41;;;;;;;3.60;1.20;;;;;;;;;;5014817;28;20330;-67
2023/06/05 09:19:35;;;;;;;3.03;1.20;;;;;;;;;;5015788;28;20163;-68
2023/06/05 09:22:02;;;;;;;6.13;1.00;;;;;;;;;;5012082;28;20234;-67
2023/06/05 09:24:30;;;;;;;4.70;1.60;;;;;;;;;;5029708;28;20559;-67
2023/06/05 09:27:05;;;;;;;4.87;1.43;;;;;;;;;;5011972;28;20253;-67
2023/06/05 09:32:52;;;;;;;4.37;1.40;;;;;;;;;;5029563;28;20826;-67
2023/06/05 09:35:19;;;;;;;3.50;1.50;;;;;;;;;;5012090;28;20533;-67
2023/06/05 09:37:46;;;;;;;2.93;0.90;;;;;;;;;;5011826;28;20187;-67
2023/06/05 09:40:14;;;;;;;16.90;2.60;;;;;;;;;;5012318;28;20270;-67
2023/06/05 09:42:42;;;;;;;3.37;1.17;;;;;;;;;;5029372;28;20195;-67
2023/06/05 09:45:08;;;;;;;2.70;1.30;;;;;;;;;;5029178;28;20222;-67
2023/06/05 09:47:36;;;;;;;2.77;1.30;;;;;;;;;;5029005;28;20680;-68
2023/06/05 09:50:23;;;;;;;71.20;7.50;;;;;;;;;;5029371;28;20210;-67
2023/06/05 09:52:51;;;;;;;29.57;3.50;;;;;;;;;;5012392;28;20215;-67
2023/06/05 09:55:35;;;;;;;12.90;1.93;;;;;;;;;;5014775;28;20564;-67
2023/06/05 09:58:09;;;;;;;4.07;1.30;;;;;;;;;;5029024;28;20199;-68
2023/06/05 10:00:53;;;;;;;3.77;1.30;;;;;;;;;;5015681;28;20170;-67
2023/06/05 10:03:20;;;;;;;2.43;1.10;;;;;;;;;;5011981;28;20194;-67
2023/06/05 10:06:05;;;;;;;3.63;1.20;;;;;;;;;;5014273;28;20654;-67
2023/06/05 10:08:32;;;;;;;4.27;1.17;;;;;;;;;;5028483;28;20187;-67
2023/06/05 10:11:16;;;;;;;2.40;1.20;;;;;;;;;;5029178;28;20172;-67
2023/06/05 10:13:43;;;;;;;1.43;0.97;;;;;;;;;;5011690;28;20234;-66
2023/06/05 10:16:30;;;;;;;3.07;1.30;;;;;;;;;;5014111;28;20226;-67
2023/06/05 10:18:58;;;;;;;2.87;1.30;;;;;;;;;;5029105;28;20209;-66
2023/06/05 10:21:25;;;;;;;2.60;1.00;;;;;;;;;;5011303;28;20191;-66
2023/06/05 10:24:11;;;;;;;2.43;1.23;;;;;;;;;;5028667;28;20203;-66
2023/06/05 10:26:56;;;;;;;2.30;1.10;;;;;;;;;;5028806;28;20168;-67
2023/06/05 10:29:52;;;;;;;4.33;1.40;;;;;;;;;;5028756;28;20242;-66
2023/06/05 10:32:28;;;;;;;2.57;1.20;;;;;;;;;;4975165;28;20204;-67
2023/06/05 10:35:01;;;;;;;2.97;1.00;;;;;;;;;;5028658;28;20233;-67
2023/06/05 10:37:57;;;;;;;2.43;1.00;;;;;;;;;;5028641;28;20641;-67
2023/06/05 10:40:24;;;;;;;3.83;1.50;;;;;;;;;;5028941;28;20175;-67
2023/06/05 10:42:51;;;;;;;4.57;1.30;;;;;;;;;;5028741;28;20214;-67
2023/06/05 10:45:31;;;;;;;2.70;1.20;;;;;;;;;;5011171;28;20678;-67
2023/06/05 10:47:58;;;;;;;2.60;1.27;;;;;;;;;;5028514;28;20187;-68
2023/06/05 10:50:26;;;;;;;2.60;1.10;;;;;;;;;;5028498;28;20234;-67
2023/06/05 10:52:53;;;;;;;1.27;1.00;;;;;;;;;;5011247;28;20187;-67
2023/06/05 10:55:21;;;;;;;4.23;1.20;;;;;;;;;;5011329;28;20186;-67
2023/06/05 10:58:00;;;;;;;3.27;1.30;;;;;;;;;;5011103;28;20612;-66
2023/06/05 11:00:27;;;;;;;3.27;1.30;;;;;;;;;;5028450;28;20202;-66
2023/06/05 11:02:54;;;;;;;4.70;1.27;;;;;;;;;;5028306;28;20184;-66
2023/06/05 11:05:21;;;;;;;3.73;1.10;;;;;;;;;;5027515;28;20782;-67
2023/06/05 11:08:08;;;;;;;1.60;1.20;;;;;;;;;;5028178;28;20230;-67
2023/06/05 11:10:35;;;;;;;2.37;1.43;;;;;;;;;;5028931;28;20215;-67
2023/06/05 11:13:02;;;;;;;2.20;1.40;;;;;;;;;;5028248;28;20233;-68
2023/06/05 11:15:28;;;;;;;1.60;1.20;;;;;;;;;;5010156;28;20227;-67
2023/06/05 11:17:56;;;;;;;2.33;1.40;;;;;;;;;;5028086;28;20215;-67
2023/06/05 11:20:23;;;;;;;3.67;1.10;;;;;;;;;;5029797;28;20203;-67
2023/06/05 11:22:53;;;;;;;4.93;1.10;;;;;;;;;;5032054;28;20218;-67
2023/06/05 11:25:21;;;;;;;2.30;1.10;;;;;;;;;;5031995;28;20265;-67
2023/06/05 11:27:51;;;;;;;4.50;1.17;;;;;;;;;;5031987;28;20192;-67
2023/06/05 11:30:19;;;;;;;4.03;1.20;;;;;;;;;;5032221;28;20651;-67
2023/06/05 11:33:09;;;;;;;2.20;1.17;;;;;;;;;;5031601;28;20187;-67
2023/06/05 11:35:36;;;;;;;2.93;1.40;;;;;;;;;;5031951;28;20614;-67
2023/06/05 11:38:09;;;;;;;6.37;1.13;;;;;;;;;;5031760;28;20310;-67
2023/06/05 11:40:36;;;;;;;9.13;1.87;;;;;;;;;;5032365;28;20273;-67
2023/06/05 11:43:04;;;;;;;3.20;1.20;;;;;;;;;;5031836;28;20196;-67
2023/06/05 11:45:32;;;;;;;5.27;1.23;;;;;;;;;;5031708;28;20211;-67
2023/06/05 11:48:09;;;;;;;3.27;1.00;;;;;;;;;;5031700;28;20317;-67
2023/06/05 11:50:36;;;;;;;2.80;1.37;;;;;;;;;;5031917;28;20667;-68
2023/06/05 11:53:07;;;;;;;33.53;4.47;;;;;;;;;;5013899;28;21014;-67
2023/06/05 11:55:43;;;;;;;4.83;1.30;;;;;;;;;;5032138;28;20653;-67
2023/06/05 11:58:11;;;;;;;4.10;1.20;;;;;;;;;;5015690;28;20280;-67
2023/06/05 12:00:37;;;;;;;3.40;1.30;;;;;;;;;;5031662;28;20228;-67
2023/06/05 12:03:04;;;;;;;9.03;1.97;;;;;;;;;;5031278;28;20279;-67
2023/06/05 12:05:49;;;;;;;9.30;1.30;;;;;;;;;;5031230;28;20204;-68
2023/06/05 12:08:25;;;;;;;3.40;1.20;;;;;;;;;;5012622;28;20238;-68
2023/06/05 12:10:52;;;;;;;3.87;1.40;;;;;;;;;;5027953;28;20275;-69
2023/06/05 12:13:20;;;;;;;3.57;1.10;;;;;;;;;;5030726;28;20193;-67
2023/06/05 12:15:59;;;;;;;5.27;1.40;;;;;;;;;;5012534;28;20227;-69
2023/06/05 12:18:33;;;;;;;5.07;1.00;;;;;;;;;;5010632;28;20223;-68
2023/06/05 12:21:00;;;;;;;3.80;1.10;;;;;;;;;;5030881;28;20236;-67
2023/06/05 12:23:44;;;;;;;4.47;1.57;;;;;;;;;;5014704;28;20169;-67
2023/06/05 12:26:11;;;;;;;2.73;1.07;;;;;;;;;;5011648;28;20295;-68
2023/06/05 12:29:03;;;;;;;6.93;1.20;;;;;;;;;;5023735;28;20181;-67
2023/06/05 12:31:31;;;;;;;2.33;1.10;;;;;;;;;;5028940;28;20717;-67
2023/06/05 12:34:17;;;;;;;5.47;1.47;;;;;;;;;;5031127;28;20686;-71
2023/06/05 12:36:44;;;;;;;9.00;1.50;;;;;;;;;;5031054;28;20694;-69
2023/06/05 12:39:13;;;;;;;4.17;1.20;;;;;;;;;;5030949;28;20239;-69
2023/06/05 12:41:40;;;;;;;3.03;1.10;;;;;;;;;;5004365;28;20455;-69
2023/06/05 12:44:07;;;;;;;1.60;0.97;;;;;;;;;;5028489;28;20188;-69
2023/06/05 12:46:35;;;;;;;2.47;0.93;;;;;;;;;;5035046;28;20188;-68
2023/06/05 12:49:02;;;;;;;3.60;1.23;;;;;;;;;;5029600;28;20193;-69
2023/06/05 12:51:29;;;;;;;3.07;1.30;;;;;;;;;;5027721;28;20195;-69
2023/06/05 12:53:56;;;;;;;3.53;1.43;;;;;;;;;;5027795;28;20190;-69
2023/06/05 12:56:28;;;;;;;2.93;1.10;;;;;;;;;;5009190;28;20203;-71
2023/06/05 12:58:58;;;;;;;3.07;1.23;;;;;;;;;;5028770;28;20222;-69
2023/06/05 13:01:29;;;;;;;3.83;1.30;;;;;;;;;;5028287;28;20213;-70
2023/06/05 13:03:56;;;;;;;1.67;1.20;;;;;;;;;;5014756;28;20554;-70
2023/06/05 13:06:23;;;;;;;6.63;1.30;;;;;;;;;;5031469;28;20244;-71
2023/06/05 13:08:51;;;;;;;1.97;1.10;;;;;;;;;;5032018;28;20661;-71
2023/06/05 13:11:18;;;;;;;8.13;1.70;;;;;;;;;;5028796;28;20191;-69
2023/06/05 13:13:45;;;;;;;4.43;1.10;;;;;;;;;;5031901;28;20680;-70
2023/06/05 13:16:12;;;;;;;2.40;1.00;;;;;;;;;;5013172;28;20196;-69
2023/06/05 13:18:39;;;;;;;3.70;1.40;;;;;;;;;;5028995;28;20193;-69
2023/06/05 13:21:06;;;;;;;2.67;1.30;;;;;;;;;;5030675;28;20300;-69
2023/06/05 13:23:33;;;;;;;2.57;1.30;;;;;;;;;;5012385;28;20222;-69
2023/06/05 13:26:00;;;;;;;1.33;1.10;;;;;;;;;;5030900;28;20302;-71
2023/06/05 13:28:27;;;;;;;4.37;1.00;;;;;;;;;;5009856;28;20637;-69
2023/06/05 13:30:55;;;;;;;1.77;1.27;;;;;;;;;;4996435;28;20720;-70
2023/06/05 13:33:24;;;;;;;2.83;1.00;;;;;;;;;;5030526;28;20197;-69
2023/06/05 13:35:52;;;;;;;2.63;1.00;;;;;;;;;;5032375;28;20189;-69
2023/06/05 13:38:20;;;;;;;13.30;2.50;;;;;;;;;;5014026;28;20225;-67
2023/06/05 13:40:49;;;;;;;1.40;1.03;;;;;;;;;;5030345;28;20188;-68
2023/06/05 13:43:16;;;;;;;1.77;0.90;;;;;;;;;;5030638;28;20196;-68
2023/06/05 13:45:43;;;;;;;3.07;1.00;;;;;;;;;;5028982;28;20221;-68
2023/06/05 13:48:10;;;;;;;5.93;1.27;;;;;;;;;;5011875;28;20267;-67
2023/06/05 13:50:37;;;;;;;1.37;0.80;;;;;;;;;;5028915;28;20228;-69
2023/06/05 13:53:04;;;;;;;2.03;0.90;;;;;;;;;;5012433;28;20719;-67
2023/06/05 13:55:31;;;;;;;1.97;0.90;;;;;;;;;;5028998;28;20290;-68
2023/06/05 13:58:01;;;;;;;2.87;0.90;;;;;;;;;;5028005;28;20843;-68
2023/06/05 14:00:45;;;;;;;1.93;0.83;;;;;;;;;;5028643;28;20185;-68
2023/06/05 14:03:12;;;;;;;4.57;1.20;;;;;;;;;;5012142;28;20267;-68
2023/06/05 14:05:42;;;;;;;2.33;1.00;;;;;;;;;;5008498;28;20246;-68
2023/06/05 14:08:09;;;;;;;2.40;0.87;;;;;;;;;;5026416;28;20547;-69
2023/06/05 14:10:36;;;;;;;4.00;1.20;;;;;;;;;;5023401;28;20188;-68
2023/06/05 14:13:20;;;;;;;1.87;0.90;;;;;;;;;;5026717;28;20183;-68
2023/06/05 14:15:47;;;;;;;1.30;0.93;;;;;;;;;;5030437;28;20265;-68
2023/06/05 14:18:14;;;;;;;1.83;0.90;;;;;;;;;;5026938;28;20293;-67
2023/06/05 14:20:41;;;;;;;1.43;1.00;;;;;;;;;;5009868;28;20597;-67
2023/06/05 14:23:10;;;;;;;1.80;0.80;;;;;;;;;;5026502;28;20222;-67
2023/06/05 14:25:37;;;;;;;2.20;0.80;;;;;;;;;;5012888;28;20236;-68
2023/06/05 14:28:06;;;;;;;1.00;0.90;;;;;;;;;;5023421;28;20191;-68
2023/06/05 14:30:33;;;;;;;2.13;0.90;;;;;;;;;;5027455;28;20179;-67
2023/06/05 14:33:00;;;;;;;2.13;0.80;;;;;;;;;;5026938;28;20191;-68
2023/06/05 14:35:29;;;;;;;1.10;0.80;;;;;;;;;;5024679;28;20287;-67
2023/06/05 14:37:56;;;;;;;1.80;0.90;;;;;;;;;;5015263;28;20257;-67
2023/06/05 14:40:23;;;;;;;1.30;0.73;;;;;;;;;;5023995;28;20191;-67
2023/06/05 14:42:50;;;;;;;1.83;0.70;;;;;;;;;;5021196;28;20726;-67
2023/06/05 14:45:17;;;;;;;1.80;1.00;;;;;;;;;;5026300;28;20211;-68
2023/06/05 14:47:47;;;;;;;3.33;1.00;;;;;;;;;;5025214;28;20184;-68
2023/06/05 14:50:14;;;;;;;2.80;0.90;;;;;;;;;;5026725;28;20222;-68
2023/06/05 14:52:41;;;;;;;2.33;0.73;;;;;;;;;;5027061;28;20542;-71
2023/06/05 14:55:08;;;;;;;1.13;0.83;;;;;;;;;;5002063;28;20714;-69
2023/06/05 14:57:37;;;;;;;2.53;0.93;;;;;;;;;;5029903;28;20187;-69
2023/06/05 15:00:05;;;;;;;1.60;0.93;;;;;;;;;;5032822;28;20199;-69
2023/06/05 15:02:32;;;;;;;1.60;0.87;;;;;;;;;;4998306;28;20659;-70
2023/06/05 15:05:03;;;;;;;1.53;0.90;;;;;;;;;;5032574;28;21201;-69
2023/06/05 15:07:40;;;;;;;1.27;0.90;;;;;;;;;;5033325;28;20249;-69
2023/06/05 15:10:08;;;;;;;1.63;0.80;;;;;;;;;;5029946;28;20217;-68
2023/06/05 15:12:35;;;;;;;1.73;1.10;;;;;;;;;;5032242;28;20203;-71
2023/06/05 15:15:02;;;;;;;1.20;0.70;;;;;;;;;;5014918;28;20191;-69
2023/06/05 15:17:46;;;;;;;1.60;0.80;;;;;;;;;;5014034;28;20304;-73
2023/06/05 15:20:14;;;;;;;1.60;0.70;;;;;;;;;;5032474;28;20241;-71
2023/06/05 15:22:40;;;;;;;2.53;0.90;;;;;;;;;;5014761;28;20290;-69
2023/06/05 15:25:07;;;;;;;1.60;0.80;;;;;;;;;;5038793;28;20211;-68
2023/06/05 15:27:35;;;;;;;1.83;0.80;;;;;;;;;;5032093;28;20764;-70
2023/06/05 15:30:01;;;;;;;1.87;0.97;;;;;;;;;;5032305;28;20535;-71
2023/06/05 15:32:28;;;;;;;3.00;1.00;;;;;;;;;;5029738;28;20191;-70
2023/06/05 15:34:57;;;;;;;1.67;0.90;;;;;;;;;;5051877;28;20190;-69
2023/06/05 15:37:24;;;;;;;2.57;0.83;;;;;;;;;;5028193;28;20236;-69
2023/06/05 15:39:52;;;;;;;2.30;0.77;;;;;;;;;;5031679;28;20227;-69